Impacts TAF Board INFO
FOR SITUATIONAL AWARENESS. NOT TO BE USED FOR FLIGHT PLANNING PURPOSES.
IDs:

KDFW - Dallas-Ft Worth Intl, TX, US

Issued at 2340 UTC 15 Dec 2017
Updated at 2344 UTC 15 Dec 2017
Potential Impact None Slight Moderate High
Time2253Z 16/00Z 16/01Z 16/02Z 16/03Z 16/04Z 16/05Z 16/06Z 16/07Z 16/08Z 16/09Z 16/10Z 16/11Z 16/12Z>>
Type OBS PRVL PRVL PRVL PRVL PRVL PRVL PRVL PRVL PRVL PRVL PRVL PRVL PRVL
VIS 10 >6 >6 >6 >6 >6 >6 >6 >6 >6 >6 >6 >6 >6
CIG -- -- -- -- -- -- -- -- -- -- -- -- -- --
Cover FEW FEW FEW FEW SCT SCT SCT SCT SCT SCT SCT SCT SCT SCT
FltCat VFR VFR VFR VFR VFR VFR VFR VFR VFR VFR VFR VFR VFR VFR
WX -- -- -- -- -- -- -- -- -- -- -- -- -- --
WDir 300 VRB VRB VRB 190 190 190 190 190 190 190 190 190 190
WSpd 5 4 4 4 6 6 6 6 6 6 6 6 6 6
WGst -- -- -- -- -- -- -- -- -- -- -- -- -- --

Raw TAF
KDFW 152340Z 1600/1706 VRB04KT P6SM FEW250
  FM160300 19006KT P6SM SCT250
  FM161600 18015KT P6SM BKN250
  FM170000 17010KT P6SM VCSH BKN030
  FM170300 17008KT 4SM -SHRA BR OVC010


Raw METAR
KDFW 152253Z 30005KT 10SM FEW250 13/M06 A3019 RMK AO2 SLP222 T01281061
KDFW 152153Z VRB03KT 10SM FEW180 FEW250 14/M06 A3020 RMK AO2 SLP225 T01391056
KDFW 152053Z 33005KT 10SM FEW180 FEW250 13/M06 A3021 RMK AO2 SLP230 T01331056 56027

METAR Board
Radar Display
Forecast Discussion

FOR SITUATIONAL AWARENESS. NOT TO BE USED FOR FLIGHT PLANNING PURPOSES.